createdAt,value
2022-12-24T00:00:31.494Z,53.52
2022-12-24T00:01:33.675Z,53.48
2022-12-24T00:02:36.855Z,53.47
2022-12-24T00:03:39.351Z,53.46
2022-12-24T00:04:42.064Z,53.47
2022-12-24T00:05:44.184Z,53.46
2022-12-24T00:06:46.577Z,53.43
2022-12-24T00:07:48.932Z,53.43
2022-12-24T00:08:51.218Z,53.43
2022-12-24T00:09:53.361Z,53.42
2022-12-24T00:10:55.645Z,53.40
2022-12-24T00:11:57.979Z,53.39
2022-12-24T00:13:01.186Z,53.39
2022-12-24T00:14:03.653Z,53.39
2022-12-24T00:15:06.638Z,53.37
2022-12-24T00:16:09.531Z,53.40
2022-12-24T00:17:12.031Z,53.39
2022-12-24T00:18:14.699Z,53.41
2022-12-24T00:19:16.786Z,53.12
2022-12-24T00:20:19.734Z,53.12
2022-12-24T00:21:21.977Z,53.42
2022-12-24T00:22:24.298Z,53.39
2022-12-24T00:23:27.281Z,53.39
2022-12-24T00:24:30.156Z,53.44
2022-12-24T00:25:32.365Z,53.47
2022-12-24T00:26:35.432Z,53.46
2022-12-24T00:27:37.727Z,53.49
2022-12-24T00:28:40.534Z,53.50
2022-12-24T00:29:42.749Z,53.49
2022-12-24T00:30:45.012Z,53.50
2022-12-24T00:31:48.215Z,53.46
2022-12-24T00:32:50.475Z,53.48
2022-12-24T00:33:52.553Z,53.47
2022-12-24T00:34:54.756Z,53.48
2022-12-24T00:35:57.036Z,53.47
2022-12-24T00:36:59.539Z,53.46
2022-12-24T00:38:01.741Z,53.42
2022-12-24T00:39:03.957Z,53.40
2022-12-24T00:40:07.605Z,53.41
2022-12-24T00:41:09.780Z,53.38
2022-12-24T00:42:11.978Z,53.28
2022-12-24T00:43:14.119Z,52.34
2022-12-24T00:44:16.532Z,51.46
2022-12-24T00:45:19.080Z,51.63
2022-12-24T00:46:23.073Z,50.18
2022-12-24T00:47:25.369Z,50.18
2022-12-24T00:48:28.030Z,49.61
2022-12-24T00:49:30.130Z,48.81
2022-12-24T00:50:33.003Z,48.14
2022-12-24T00:51:36.425Z,48.35
2022-12-24T00:52:38.876Z,48.09
2022-12-24T00:53:41.060Z,47.94
2022-12-24T00:54:44.166Z,47.87
2022-12-24T00:55:46.421Z,48.03
2022-12-24T00:56:48.642Z,47.62
2022-12-24T00:57:50.720Z,47.80
2022-12-24T00:58:53.361Z,47.43
2022-12-24T00:59:55.554Z,47.83
2022-12-24T01:00:58.197Z,47.09
2022-12-24T01:02:01.340Z,47.57
2022-12-24T01:03:03.728Z,47.36
2022-12-24T01:04:06.128Z,47.39
2022-12-24T01:05:11.471Z,47.67
2022-12-24T01:06:15.479Z,47.30
2022-12-24T01:07:17.735Z,47.47
2022-12-24T01:08:20.818Z,47.60
2022-12-24T01:09:23.676Z,47.08
2022-12-24T01:10:26.558Z,46.87
2022-12-24T01:11:28.745Z,47.24
2022-12-24T01:12:30.840Z,47.02
2022-12-24T01:13:33.794Z,46.62
2022-12-24T01:14:36.736Z,47.19
2022-12-24T01:15:39.030Z,47.55
2022-12-24T01:16:41.274Z,46.90
2022-12-24T01:17:43.385Z,47.03
2022-12-24T01:18:45.568Z,47.04
2022-12-24T01:19:49.521Z,47.38
2022-12-24T01:21:00.099Z,47.28
2022-12-24T01:22:03.109Z,46.92
2022-12-24T01:23:05.215Z,47.14
2022-12-24T01:24:10.909Z,47.27
2022-12-24T01:25:14.234Z,47.29
2022-12-24T01:26:16.801Z,46.85
2022-12-24T01:27:19.904Z,47.51
2022-12-24T01:28:22.138Z,46.54
2022-12-24T01:29:24.336Z,47.13
2022-12-24T01:30:27.186Z,46.79
2022-12-24T01:31:29.846Z,46.58
2022-12-24T01:33:34.557Z,46.75
2022-12-24T01:35:40.083Z,46.67
2022-12-24T01:37:46.657Z,46.32
2022-12-24T01:39:51.544Z,46.21
2022-12-24T01:40:54.827Z,46.50
2022-12-24T01:41:57.075Z,46.63
2022-12-24T01:42:59.379Z,46.53
2022-12-24T01:44:21.414Z,46.48
2022-12-24T01:45:58.001Z,46.51
2022-12-24T01:47:17.649Z,45.75
2022-12-24T01:49:50.944Z,45.54
2022-12-24T01:50:56.539Z,45.49
2022-12-24T01:52:14.585Z,45.26
2022-12-24T06:10:21.145Z,63.46
2022-12-24T06:11:24.787Z,63.38
2022-12-24T06:12:27.155Z,63.34
2022-12-24T06:13:29.923Z,63.29
2022-12-24T06:14:32.877Z,63.17
2022-12-24T06:15:36.467Z,63.11
2022-12-24T06:16:38.984Z,62.88
2022-12-24T06:17:41.471Z,62.81
2022-12-24T06:18:43.681Z,62.53
2022-12-24T06:19:45.855Z,62.23
2022-12-24T06:20:52.016Z,62.03
2022-12-24T06:21:55.300Z,61.82
2022-12-24T06:22:58.605Z,61.45
2022-12-24T06:24:01.390Z,61.15
2022-12-24T06:25:04.467Z,60.89
2022-12-24T06:26:07.822Z,60.62
2022-12-24T06:27:09.993Z,60.44
2022-12-24T06:28:13.533Z,60.17
2022-12-24T06:29:15.707Z,59.86
2022-12-24T06:30:18.779Z,59.57
2022-12-24T06:31:22.181Z,59.47
2022-12-24T06:32:25.231Z,59.29
2022-12-24T06:33:27.509Z,59.12
2022-12-24T06:34:29.683Z,58.86
2022-12-24T06:35:32.952Z,58.72
2022-12-24T06:36:35.193Z,58.51
2022-12-24T06:37:37.300Z,58.32
2022-12-24T06:38:40.463Z,58.17
2022-12-24T06:39:43.871Z,58.01
2022-12-24T06:40:46.477Z,57.81
2022-12-24T06:41:48.594Z,57.70
2022-12-24T06:42:51.162Z,57.54
2022-12-24T06:43:53.303Z,57.46
2022-12-24T06:44:57.451Z,57.42
2022-12-24T06:46:01.233Z,57.30
2022-12-24T06:47:03.485Z,57.27
2022-12-24T06:48:06.002Z,57.17
2022-12-24T06:49:08.134Z,57.12
2022-12-24T06:50:11.135Z,56.99
2022-12-24T06:51:13.783Z,56.92
2022-12-24T06:52:16.016Z,56.84
2022-12-24T06:53:18.130Z,56.76
2022-12-24T06:54:20.324Z,56.65
2022-12-24T06:55:23.641Z,56.58
2022-12-24T06:56:26.750Z,56.56
2022-12-24T06:57:29.142Z,56.47
2022-12-24T06:58:31.857Z,56.35
2022-12-24T06:59:33.994Z,55.95
2022-12-24T07:00:36.480Z,55.95
2022-12-24T07:01:38.695Z,56.22
2022-12-24T07:02:46.778Z,56.19
2022-12-24T07:03:50.155Z,56.18
2022-12-24T07:05:54.606Z,56.07
2022-12-24T07:10:05.069Z,55.90
2022-12-24T07:12:09.194Z,55.95
2022-12-24T07:13:11.368Z,55.95
2022-12-24T07:15:17.785Z,55.89
2022-12-24T07:16:21.951Z,55.88
2022-12-24T07:21:35.197Z,55.73
2022-12-24T07:23:41.293Z,55.68
2022-12-24T07:34:04.368Z,55.55
2022-12-24T07:35:08.311Z,55.52
2022-12-24T07:36:15.749Z,55.46
2022-12-24T07:37:18.006Z,55.50
2022-12-24T07:46:43.051Z,54.90
2022-12-24T07:47:45.459Z,54.90
2022-12-24T07:50:52.182Z,54.96
2022-12-24T07:51:54.373Z,54.94
2022-12-24T07:52:56.655Z,54.94
2022-12-24T07:53:59.832Z,54.94
2022-12-24T07:55:01.972Z,54.90
2022-12-24T07:56:10.616Z,54.89
2022-12-24T07:57:09.908Z,54.88
2022-12-24T07:58:12.501Z,54.85
2022-12-24T07:59:14.563Z,54.84
2022-12-24T08:00:17.709Z,54.79
2022-12-24T08:01:21.048Z,54.87
2022-12-24T08:02:23.611Z,55.07
2022-12-24T08:03:26.585Z,55.07
2022-12-24T08:04:32.128Z,54.77
2022-12-24T08:05:37.630Z,54.78
2022-12-24T08:06:40.731Z,54.78
2022-12-24T08:07:43.405Z,54.75
2022-12-24T08:08:46.039Z,54.71
2022-12-24T08:09:48.249Z,54.68
2022-12-24T08:10:51.529Z,54.65
2022-12-24T08:11:53.816Z,54.63
2022-12-24T08:12:56.618Z,54.64
2022-12-24T08:13:59.828Z,54.63
2022-12-24T08:15:02.789Z,54.65
2022-12-24T08:16:05.718Z,54.64
2022-12-24T08:17:09.187Z,54.66
2022-12-24T08:18:12.507Z,54.64
2022-12-24T08:19:14.743Z,54.65
2022-12-24T08:20:17.494Z,54.63
2022-12-24T08:21:20.489Z,54.68
2022-12-24T08:22:22.750Z,54.66
2022-12-24T08:23:25.026Z,54.69
2022-12-24T08:24:27.204Z,54.69
2022-12-24T08:25:29.363Z,54.69
2022-12-24T08:26:32.859Z,54.71
2022-12-24T08:27:36.175Z,54.73
2022-12-24T08:28:38.273Z,54.72
2022-12-24T08:29:41.593Z,54.73
2022-12-24T08:30:46.970Z,54.70
2022-12-24T08:31:49.245Z,54.72
2022-12-24T08:32:52.291Z,54.70
2022-12-24T08:33:55.700Z,54.71
2022-12-24T08:34:58.589Z,54.70
2022-12-24T08:36:01.407Z,54.69
2022-12-24T08:37:04.054Z,54.83
2022-12-24T08:38:06.421Z,54.97
2022-12-24T08:39:09.173Z,55.07
2022-12-24T08:40:14.050Z,55.01
2022-12-24T08:41:16.264Z,54.93
2022-12-24T08:42:19.427Z,54.93
2022-12-24T08:43:23.362Z,54.89
2022-12-24T08:44:26.544Z,54.76
2022-12-24T08:45:32.055Z,54.77
2022-12-24T08:46:33.245Z,54.82
2022-12-24T08:47:36.646Z,54.82
2022-12-24T08:48:38.891Z,54.74
2022-12-24T08:49:41.013Z,54.68
2022-12-24T08:50:43.813Z,54.61
2022-12-24T08:51:46.897Z,54.63
2022-12-24T08:52:49.553Z,54.59
2022-12-24T08:53:51.906Z,54.53
2022-12-24T08:54:54.037Z,54.54
2022-12-24T08:56:05.613Z,54.51
2022-12-24T08:57:07.857Z,54.47
2022-12-24T08:58:10.036Z,54.41
2022-12-24T08:59:12.188Z,54.39
2022-12-24T09:00:17.179Z,54.45
2022-12-24T09:01:19.907Z,54.44
2022-12-24T09:02:22.372Z,54.38
2022-12-24T09:03:27.786Z,54.42
2022-12-24T09:04:28.694Z,54.41
2022-12-24T09:05:30.992Z,54.40
2022-12-24T09:06:33.472Z,54.40
2022-12-24T09:07:55.168Z,54.40
2022-12-24T09:08:58.617Z,54.38
2022-12-24T09:10:00.867Z,54.36
2022-12-24T09:11:07.936Z,54.36
2022-12-24T09:12:10.100Z,54.38
2022-12-24T09:13:12.118Z,54.41
2022-12-24T09:14:14.336Z,54.39
2022-12-24T09:15:17.560Z,54.38
2022-12-24T09:16:21.644Z,54.33
2022-12-24T09:17:25.065Z,54.35
2022-12-24T09:18:27.960Z,54.41
2022-12-24T09:19:30.214Z,54.39
2022-12-24T09:20:34.515Z,54.41
2022-12-24T09:21:36.749Z,54.53
2022-12-24T09:22:39.179Z,54.53
2022-12-24T09:23:42.608Z,54.38
2022-12-24T09:24:45.048Z,54.30
2022-12-24T09:25:47.231Z,54.26
2022-12-24T09:26:57.299Z,54.15
2022-12-24T09:27:55.685Z,54.14
2022-12-24T09:28:58.540Z,54.11
2022-12-24T09:30:00.960Z,54.07
2022-12-24T09:31:03.638Z,54.05
2022-12-24T09:32:06.930Z,53.99
2022-12-24T09:33:09.390Z,53.98
2022-12-24T09:34:11.579Z,53.93
2022-12-24T09:35:14.683Z,53.93
2022-12-24T09:36:18.453Z,53.91
2022-12-24T09:37:21.473Z,53.91
2022-12-24T09:38:24.791Z,53.86
2022-12-24T09:39:27.884Z,53.84
2022-12-24T09:40:39.157Z,53.82
2022-12-24T09:41:50.994Z,53.81
2022-12-24T09:42:54.316Z,53.78
2022-12-24T09:44:00.169Z,53.77
2022-12-24T09:46:30.771Z,53.73
2022-12-24T09:47:36.455Z,53.71
2022-12-24T09:49:53.756Z,53.72
2022-12-24T09:51:08.697Z,53.76
2022-12-24T09:52:14.169Z,53.78
2022-12-24T09:53:23.024Z,53.79
2022-12-24T09:54:28.480Z,53.83
2022-12-24T09:55:33.288Z,53.88
2022-12-24T09:56:40.246Z,53.85
2022-12-24T10:55:27.971Z,61.93
2022-12-24T10:56:31.225Z,61.99
2022-12-24T10:57:33.591Z,62.14
2022-12-24T10:58:35.781Z,62.04
2022-12-24T10:59:42.575Z,61.97
2022-12-24T11:00:53.177Z,61.85
2022-12-24T11:01:57.584Z,61.62
2022-12-24T11:04:29.151Z,61.03
2022-12-24T11:06:54.410Z,60.42
2022-12-24T11:08:01.490Z,60.25
2022-12-24T11:09:21.827Z,59.95
2022-12-24T11:10:24.454Z,59.75
2022-12-24T11:11:27.364Z,59.26
2022-12-24T11:13:55.698Z,58.73
2022-12-24T11:15:04.740Z,58.44
2022-12-24T11:16:27.290Z,58.10
2022-12-24T11:17:30.792Z,57.76
2022-12-24T11:18:35.642Z,57.59
2022-12-24T11:19:38.168Z,57.37
2022-12-24T11:20:40.481Z,57.06
2022-12-24T11:21:42.880Z,57.06
2022-12-24T11:22:48.148Z,56.71
2022-12-24T11:26:28.295Z,55.78
2022-12-24T11:27:40.934Z,55.56
2022-12-24T11:28:43.116Z,55.26
2022-12-24T11:29:45.491Z,55.05
2022-12-24T11:31:03.353Z,54.91
2022-12-24T11:33:29.957Z,54.48
2022-12-24T11:34:32.333Z,54.30
2022-12-24T11:35:41.313Z,54.21
2022-12-24T11:36:43.979Z,54.04
2022-12-24T11:37:46.688Z,53.99
2022-12-24T11:38:56.599Z,53.86
2022-12-24T11:40:01.845Z,53.84
2022-12-24T11:41:07.621Z,53.75
2022-12-24T11:42:31.777Z,53.59
2022-12-24T11:43:40.733Z,53.49
2022-12-24T11:44:48.438Z,53.39
2022-12-24T11:45:53.628Z,53.29
2022-12-24T11:46:57.438Z,53.28
2022-12-24T11:48:00.480Z,53.21
2022-12-24T11:49:18.335Z,53.24
2022-12-24T11:50:32.596Z,53.24
2022-12-24T11:51:34.961Z,53.13
2022-12-24T11:52:37.241Z,53.01
2022-12-24T11:53:43.187Z,52.96
2022-12-24T11:54:53.020Z,52.91
2022-12-24T11:55:56.300Z,52.69
2022-12-24T11:56:58.940Z,52.53
2022-12-24T11:58:19.814Z,52.48
2022-12-24T11:59:32.017Z,52.42
2022-12-24T12:00:35.317Z,52.27
2022-12-24T12:02:55.266Z,52.00
2022-12-24T12:05:17.367Z,51.70
2022-12-24T12:06:29.099Z,51.46
2022-12-24T12:07:34.745Z,51.29
2022-12-24T12:08:37.723Z,51.22
2022-12-24T12:09:45.142Z,51.28
2022-12-24T12:10:47.611Z,51.26
2022-12-24T12:13:16.284Z,51.24
2022-12-24T12:14:23.231Z,51.23
2022-12-24T12:15:28.231Z,51.26
2022-12-24T12:16:47.638Z,51.23
2022-12-24T12:19:15.462Z,51.30
2022-12-24T12:20:29.074Z,51.29
2022-12-24T12:21:43.618Z,51.25
2022-12-24T12:23:07.688Z,51.28
2022-12-24T12:25:52.971Z,51.39
2022-12-24T12:26:59.866Z,51.42
2022-12-24T12:28:03.467Z,51.45
2022-12-24T12:29:32.754Z,51.49
2022-12-24T12:30:37.783Z,51.45
2022-12-24T12:31:42.938Z,51.48
2022-12-24T12:32:58.154Z,51.58
2022-12-24T12:34:06.398Z,51.68
2022-12-24T12:35:32.794Z,51.89
2022-12-24T12:38:04.976Z,51.96
2022-12-24T12:39:08.929Z,52.07
2022-12-24T12:40:13.779Z,52.13
2022-12-24T12:41:22.833Z,52.14
2022-12-24T12:42:34.513Z,52.19
2022-12-24T12:43:49.559Z,52.19
2022-12-24T12:45:02.216Z,52.25
2022-12-24T12:46:18.372Z,52.37
2022-12-24T12:47:47.526Z,52.43
2022-12-24T12:49:02.854Z,52.52
2022-12-24T12:50:15.978Z,52.60
2022-12-24T12:51:37.456Z,52.67
2022-12-24T12:54:24.310Z,52.79
2022-12-24T12:56:49.460Z,52.93
2022-12-24T12:57:55.379Z,52.97
2022-12-24T12:59:13.326Z,53.04
2022-12-24T13:00:18.815Z,53.04
2022-12-24T13:01:47.929Z,53.05
2022-12-24T13:02:57.158Z,53.07
2022-12-24T13:04:10.558Z,53.08
2022-12-24T13:05:32.860Z,53.07
2022-12-24T13:06:54.200Z,53.09
2022-12-24T13:08:12.604Z,53.12
2022-12-24T13:09:36.146Z,53.15
2022-12-24T13:10:57.594Z,53.20
2022-12-24T13:13:43.998Z,53.28
2022-12-24T13:14:50.105Z,53.31
2022-12-24T13:15:56.243Z,53.38
2022-12-24T13:17:22.231Z,53.44
2022-12-24T13:18:34.487Z,53.48
2022-12-24T13:20:03.982Z,53.50
2022-12-24T13:22:26.960Z,53.63
2022-12-24T13:23:28.860Z,53.55
2022-12-24T13:24:31.320Z,53.35
2022-12-24T13:25:39.021Z,53.11
2022-12-24T13:26:42.955Z,53.07
2022-12-24T13:27:45.272Z,53.27
2022-12-24T13:28:47.963Z,52.98
2022-12-24T13:30:01.047Z,52.86
2022-12-24T13:31:19.094Z,52.81
2022-12-24T13:32:25.535Z,52.61
2022-12-24T13:35:02.446Z,52.31
2022-12-24T13:36:13.537Z,52.25
2022-12-24T13:37:24.333Z,52.25
2022-12-24T13:38:30.416Z,52.22
2022-12-24T13:40:03.084Z,52.25
2022-12-24T13:41:40.040Z,52.08
2022-12-24T13:43:01.965Z,51.77
2022-12-24T13:44:14.727Z,51.73
2022-12-24T13:45:32.822Z,51.69
2022-12-24T13:46:48.231Z,51.52
2022-12-24T13:47:51.058Z,51.61
2022-12-24T13:48:54.971Z,51.58
2022-12-24T13:49:57.182Z,51.53
2022-12-24T13:51:02.356Z,51.79
2022-12-24T13:52:15.592Z,52.00
2022-12-24T13:53:42.202Z,52.06
2022-12-24T13:54:51.242Z,51.83
2022-12-24T13:56:15.152Z,51.53
2022-12-24T13:57:45.050Z,51.65
2022-12-24T13:58:52.990Z,51.68
2022-12-24T14:01:18.197Z,51.76
2022-12-24T14:02:20.763Z,52.00
2022-12-24T14:04:49.616Z,52.10
2022-12-24T14:05:55.967Z,52.73
2022-12-24T14:06:59.581Z,52.35
2022-12-24T14:08:04.587Z,52.39
2022-12-24T14:09:15.001Z,52.15
2022-12-24T14:10:25.780Z,51.92
2022-12-24T14:11:34.560Z,51.91
2022-12-24T14:12:47.060Z,51.78
2022-12-24T14:13:54.417Z,51.80
2022-12-24T14:14:57.646Z,51.75
2022-12-24T14:16:01.748Z,51.79
2022-12-24T14:17:19.873Z,51.69
2022-12-24T14:18:23.047Z,51.83
2022-12-24T14:19:33.698Z,51.54
2022-12-24T14:20:33.452Z,51.51
2022-12-24T14:21:38.023Z,51.53
2022-12-24T14:22:44.744Z,51.54
2022-12-24T14:23:51.831Z,51.69
2022-12-24T14:25:16.339Z,51.40
2022-12-24T14:26:21.618Z,51.39
2022-12-24T14:27:43.133Z,51.38
2022-12-24T14:28:49.508Z,50.78
2022-12-24T14:30:07.092Z,50.83
2022-12-24T14:31:17.439Z,50.88
2022-12-24T14:32:21.826Z,50.93
2022-12-24T14:33:34.161Z,51.05
2022-12-24T14:34:36.321Z,51.10
2022-12-24T14:35:38.939Z,50.86
2022-12-24T14:36:43.330Z,51.02
2022-12-24T14:37:48.777Z,51.00
2022-12-24T14:38:52.051Z,50.90
2022-12-24T14:39:55.311Z,50.94
2022-12-24T14:41:10.508Z,50.84
2022-12-24T14:44:23.900Z,50.72
2022-12-24T14:45:44.886Z,50.58
2022-12-24T14:46:59.169Z,50.60
2022-12-24T14:48:07.980Z,50.57
2022-12-24T14:49:37.548Z,50.58
2022-12-24T14:50:46.583Z,50.45
2022-12-24T14:52:38.014Z,50.54
2022-12-24T14:53:47.787Z,50.60
2022-12-24T14:54:49.908Z,50.15
2022-12-24T14:55:52.621Z,50.42
2022-12-24T14:57:14.543Z,50.37
2022-12-24T14:58:25.774Z,50.39
2022-12-24T14:59:28.029Z,50.26
2022-12-24T15:00:35.984Z,50.28
2022-12-24T15:01:35.884Z,50.34
2022-12-24T15:04:12.959Z,50.42
2022-12-24T15:05:16.824Z,50.41
2022-12-24T15:06:19.518Z,50.24
2022-12-24T15:07:21.765Z,50.23
2022-12-24T15:09:45.057Z,50.19
2022-12-24T15:12:03.728Z,50.00
2022-12-24T15:13:23.796Z,49.92
2022-12-24T15:14:28.658Z,49.93
2022-12-24T15:15:32.131Z,49.69
2022-12-24T15:16:36.409Z,49.79
2022-12-24T15:17:38.628Z,49.55
2022-12-24T15:18:47.606Z,49.60
2022-12-24T15:19:50.908Z,49.67
2022-12-24T15:20:58.660Z,49.61
2022-12-24T15:21:59.372Z,49.60
2022-12-24T15:23:01.611Z,49.58
2022-12-24T15:24:04.999Z,49.48
2022-12-24T15:25:19.300Z,49.42
2022-12-24T15:26:29.252Z,49.54
2022-12-24T15:27:32.127Z,49.65
2022-12-24T15:28:37.484Z,49.64
2022-12-24T15:29:42.644Z,49.42
2022-12-24T15:30:45.947Z,49.57
2022-12-24T15:31:59.114Z,49.40
2022-12-24T15:33:02.476Z,49.27
2022-12-24T15:34:04.727Z,49.29
2022-12-24T15:35:09.659Z,49.28
2022-12-24T15:36:14.548Z,49.33
2022-12-24T15:37:22.353Z,49.21
2022-12-24T15:38:38.170Z,49.20
2022-12-24T15:39:41.445Z,49.19
2022-12-24T15:40:49.165Z,49.16
2022-12-24T15:41:52.475Z,49.06
2022-12-24T15:42:54.873Z,49.00
2022-12-24T15:44:01.132Z,48.89
2022-12-24T15:46:21.683Z,49.07
2022-12-24T15:47:29.176Z,48.87
2022-12-24T15:48:31.443Z,48.85
2022-12-24T15:49:33.641Z,48.73
2022-12-24T15:50:37.154Z,48.61
2022-12-24T15:51:40.268Z,48.16
2022-12-24T15:52:44.240Z,48.57
2022-12-24T15:53:46.736Z,48.39
2022-12-24T15:54:57.255Z,48.66
2022-12-24T15:56:06.575Z,48.28
2022-12-24T15:57:26.658Z,48.56
2022-12-24T15:58:34.388Z,48.25
2022-12-24T15:59:36.693Z,48.19
2022-12-24T16:00:39.856Z,48.05
2022-12-24T16:01:42.198Z,48.24
2022-12-24T16:02:44.594Z,48.01
2022-12-24T16:03:53.592Z,48.00
2022-12-24T16:05:16.515Z,47.90
2022-12-24T16:06:20.498Z,48.08
2022-12-24T16:08:37.275Z,47.89
2022-12-24T16:09:44.319Z,47.98
2022-12-24T16:11:05.168Z,47.79
2022-12-24T16:12:15.818Z,48.11
2022-12-24T16:13:26.415Z,47.74
2022-12-24T16:14:29.407Z,48.02
2022-12-24T16:15:35.298Z,47.72
2022-12-24T16:17:53.328Z,47.70
2022-12-24T16:18:56.695Z,47.61
2022-12-24T16:20:03.368Z,47.75
2022-12-24T16:21:06.456Z,47.67
2022-12-24T16:22:09.919Z,47.73
2022-12-24T16:23:21.631Z,47.80
2022-12-24T16:24:25.433Z,47.75
2022-12-24T16:25:28.083Z,47.71
2022-12-24T16:26:30.997Z,47.71
2022-12-24T16:27:33.826Z,47.72
2022-12-24T16:28:36.576Z,47.58
2022-12-24T16:29:39.990Z,47.27
2022-12-24T16:30:44.557Z,47.27
2022-12-24T16:33:12.950Z,47.72
2022-12-24T16:34:16.982Z,47.57
2022-12-24T16:35:28.440Z,47.69
2022-12-24T16:36:30.797Z,47.68
2022-12-24T16:37:34.522Z,47.62
2022-12-24T16:38:37.684Z,47.62
2022-12-24T16:39:39.871Z,47.68
2022-12-24T16:40:42.162Z,47.77
2022-12-24T16:41:45.499Z,47.51
2022-12-24T16:42:47.812Z,47.76
2022-12-24T16:43:50.069Z,47.66
2022-12-24T16:44:52.607Z,47.69
2022-12-24T16:46:03.614Z,47.69
2022-12-24T16:47:07.752Z,47.67
2022-12-24T16:48:13.267Z,47.53
2022-12-24T16:49:16.708Z,47.64
2022-12-24T16:50:20.240Z,47.64
2022-12-24T16:51:23.470Z,47.78
2022-12-24T16:52:27.031Z,47.76
2022-12-24T16:53:30.126Z,47.74
2022-12-24T16:54:34.403Z,47.72
2022-12-24T16:55:36.702Z,47.16
2022-12-24T16:56:40.669Z,47.23
2022-12-24T16:57:43.513Z,47.19
2022-12-24T16:58:57.526Z,47.45
2022-12-24T16:59:55.727Z,47.40
2022-12-24T17:00:58.228Z,47.26
2022-12-24T17:02:02.275Z,47.33
2022-12-24T17:03:05.397Z,47.29
2022-12-24T17:04:13.134Z,47.20
2022-12-24T17:05:16.197Z,47.07
2022-12-24T17:06:19.836Z,47.14
2022-12-24T17:07:22.147Z,47.18
2022-12-24T17:08:24.377Z,46.84
2022-12-24T17:09:26.736Z,46.99
2022-12-24T17:10:31.845Z,47.22
2022-12-24T17:11:34.272Z,47.32
2022-12-24T17:12:36.337Z,47.51
2022-12-24T17:13:40.501Z,47.70
2022-12-24T17:14:43.879Z,47.75
2022-12-24T17:15:47.269Z,48.00
2022-12-24T17:16:50.764Z,48.26
2022-12-24T17:17:53.000Z,48.38
2022-12-24T17:18:55.741Z,48.57
2022-12-24T17:19:57.960Z,48.67
2022-12-24T17:21:01.004Z,48.81
2022-12-24T17:22:03.767Z,48.96
2022-12-24T17:23:06.164Z,49.08
2022-12-24T17:24:08.439Z,49.27
2022-12-24T17:25:11.926Z,49.31
2022-12-24T17:26:17.031Z,49.54
2022-12-24T17:27:20.324Z,49.57
2022-12-24T17:28:24.477Z,49.65
2022-12-24T17:29:26.644Z,49.79
2022-12-24T17:30:28.917Z,49.91
2022-12-24T17:31:32.798Z,49.94
2022-12-24T17:32:35.281Z,50.01
2022-12-24T17:33:38.538Z,50.02
2022-12-24T17:34:41.491Z,50.11
2022-12-24T17:35:43.599Z,50.22
2022-12-24T17:36:46.447Z,50.23
2022-12-24T17:37:48.935Z,50.32
2022-12-24T17:38:51.890Z,50.34
2022-12-24T17:39:54.502Z,50.40
2022-12-24T17:41:03.265Z,50.38
2022-12-24T17:42:07.165Z,50.43
2022-12-24T17:43:09.929Z,50.51
2022-12-24T17:44:15.083Z,50.52
2022-12-24T17:45:17.379Z,50.57
2022-12-24T17:46:22.521Z,50.59
2022-12-24T17:47:25.730Z,50.64
2022-12-24T17:48:28.860Z,50.69
2022-12-24T17:49:32.234Z,50.69
2022-12-24T17:50:39.998Z,50.74
2022-12-24T17:51:45.663Z,50.75
2022-12-24T17:52:47.321Z,50.80
2022-12-24T17:53:50.318Z,50.81
2022-12-24T17:54:53.377Z,50.79
2022-12-24T17:55:56.441Z,50.84
2022-12-24T17:56:58.698Z,50.89
2022-12-24T17:58:00.786Z,50.92
2022-12-24T17:59:03.848Z,50.92
2022-12-24T18:00:09.515Z,50.94
2022-12-24T18:02:26.228Z,50.97
2022-12-24T18:03:28.674Z,51.05
2022-12-24T18:04:31.888Z,51.10
2022-12-24T18:05:34.636Z,51.15
2022-12-24T18:06:43.067Z,51.17
2022-12-24T18:07:44.135Z,51.16
2022-12-24T18:08:46.744Z,51.17
2022-12-24T18:09:49.995Z,51.43
2022-12-24T18:10:52.467Z,51.43
2022-12-24T18:11:54.787Z,51.13
2022-12-24T18:12:57.558Z,51.14
2022-12-24T18:14:01.510Z,51.15
2022-12-24T18:15:05.832Z,51.16
2022-12-24T18:16:26.358Z,51.18
2022-12-24T18:17:28.749Z,51.23
2022-12-24T18:18:31.268Z,51.22
2022-12-24T18:19:33.368Z,51.26
2022-12-24T18:20:41.103Z,51.28
2022-12-24T18:21:40.257Z,51.33
2022-12-24T18:22:43.422Z,51.38
2022-12-24T18:23:47.773Z,51.42
2022-12-24T18:24:49.905Z,51.41
2022-12-24T18:25:52.747Z,51.46
2022-12-24T18:26:54.911Z,51.47
2022-12-24T18:27:57.053Z,51.48
2022-12-24T18:29:00.452Z,51.49
2022-12-24T18:30:03.820Z,51.53
2022-12-24T18:31:08.379Z,51.55
2022-12-24T18:32:10.661Z,51.57
2022-12-24T18:33:13.383Z,51.59
2022-12-24T18:34:15.739Z,51.54
2022-12-24T18:35:18.619Z,51.59
2022-12-24T18:37:08.076Z,51.60
2022-12-24T18:38:11.687Z,51.61
2022-12-24T18:39:14.775Z,51.66
2022-12-24T18:40:20.642Z,51.64
2022-12-24T18:41:26.131Z,51.66
2022-12-24T18:42:28.750Z,51.67
2022-12-24T18:43:31.283Z,51.66
2022-12-24T18:44:34.528Z,51.70
2022-12-24T18:45:46.229Z,51.71
2022-12-24T18:46:50.079Z,51.71
2022-12-24T18:47:53.122Z,51.72
2022-12-24T18:48:56.971Z,51.74
2022-12-24T18:50:03.474Z,51.73
2022-12-24T18:51:06.543Z,51.77
2022-12-24T18:52:11.356Z,51.77
2022-12-24T18:53:15.283Z,51.82
2022-12-24T18:54:17.835Z,51.81
2022-12-24T18:55:20.586Z,51.81
2022-12-24T18:56:24.327Z,51.87
2022-12-24T18:57:27.729Z,51.92
2022-12-24T18:58:30.304Z,51.92
2022-12-24T18:59:34.065Z,51.88
2022-12-24T19:00:37.078Z,51.87
2022-12-24T19:01:41.473Z,51.86
2022-12-24T19:02:44.300Z,51.85
2022-12-24T19:03:47.170Z,51.85
2022-12-24T19:04:50.038Z,51.82
2022-12-24T19:05:54.281Z,51.82
2022-12-24T19:06:57.191Z,51.86
2022-12-24T19:08:11.028Z,51.91
2022-12-24T19:09:05.482Z,51.94
2022-12-24T19:10:09.811Z,51.99
2022-12-24T19:11:12.292Z,51.99
2022-12-24T19:12:15.870Z,52.06
2022-12-24T19:13:18.832Z,52.12
2022-12-24T19:14:21.682Z,52.17
2022-12-24T19:15:29.442Z,52.23
2022-12-24T19:16:33.860Z,52.29
2022-12-24T19:17:36.785Z,52.47
2022-12-24T19:18:40.324Z,52.65
2022-12-24T19:19:44.015Z,52.72
2022-12-24T19:20:46.656Z,52.79
2022-12-24T19:21:50.904Z,52.83
2022-12-24T19:22:53.510Z,52.89
2022-12-24T19:23:56.049Z,52.98
2022-12-24T19:24:58.769Z,52.98
2022-12-24T19:26:01.784Z,52.92
2022-12-24T19:27:06.400Z,52.92
2022-12-24T19:28:11.281Z,52.82
2022-12-24T19:29:15.107Z,52.82
2022-12-24T19:30:18.033Z,53.16
2022-12-24T19:31:22.937Z,53.17
2022-12-24T19:32:26.595Z,53.16
2022-12-24T19:33:29.742Z,53.16
2022-12-24T19:34:33.234Z,53.21
2022-12-24T19:35:36.172Z,53.20
2022-12-24T19:36:38.652Z,53.19
2022-12-24T19:37:41.172Z,53.27
2022-12-24T19:38:44.324Z,53.39
2022-12-24T19:39:47.397Z,53.43
2022-12-24T19:40:50.128Z,53.43
2022-12-24T19:41:52.761Z,53.46
2022-12-24T19:42:55.215Z,53.44
2022-12-24T19:43:59.064Z,53.43
2022-12-24T19:45:01.442Z,53.44
2022-12-24T19:46:05.640Z,53.45
2022-12-24T19:47:09.560Z,53.45
2022-12-24T19:48:12.570Z,53.48
2022-12-24T19:49:15.747Z,53.50
2022-12-24T19:50:19.249Z,53.51
2022-12-24T19:51:22.947Z,53.54
2022-12-24T19:52:26.321Z,53.53
2022-12-24T19:53:30.052Z,53.56
2022-12-24T19:54:34.115Z,53.58
2022-12-24T19:55:37.716Z,53.59
2022-12-24T19:56:40.474Z,53.60
2022-12-24T19:57:43.972Z,53.66
2022-12-24T19:58:47.345Z,53.66
2022-12-24T19:59:50.046Z,53.60
2022-12-24T20:00:53.510Z,53.62
2022-12-24T20:01:56.182Z,53.64
2022-12-24T20:03:00.005Z,53.65
2022-12-24T20:04:04.177Z,53.78
2022-12-24T20:05:08.938Z,53.78
2022-12-24T20:06:12.656Z,53.66
2022-12-24T20:07:16.133Z,53.67
2022-12-24T20:08:20.165Z,53.66
2022-12-24T20:09:24.298Z,53.69
2022-12-24T20:10:27.949Z,53.70
2022-12-24T20:11:30.730Z,53.72
2022-12-24T20:12:33.639Z,53.72
2022-12-24T20:13:37.947Z,53.75
2022-12-24T20:14:40.548Z,53.78
2022-12-24T20:15:44.338Z,53.77
2022-12-24T20:16:47.419Z,53.79
2022-12-24T20:17:52.688Z,53.81
2022-12-24T20:18:58.184Z,53.79
2022-12-24T20:20:00.476Z,53.83
2022-12-24T20:21:05.936Z,53.83
2022-12-24T20:22:09.501Z,53.83
2022-12-24T20:23:12.463Z,53.83
2022-12-24T20:24:15.976Z,53.83
2022-12-24T20:25:18.354Z,53.83
2022-12-24T20:26:22.657Z,53.83
2022-12-24T20:27:26.456Z,53.85
2022-12-24T20:28:30.754Z,53.85
2022-12-24T20:29:34.259Z,53.82
2022-12-24T20:30:37.039Z,53.87
2022-12-24T20:31:41.678Z,53.85
2022-12-24T20:32:45.530Z,53.88
2022-12-24T20:33:47.903Z,53.86
2022-12-24T20:34:51.676Z,53.88
2022-12-24T20:35:53.951Z,53.87